createdAt,value
2023-02-05T00:00:22.367Z,17.05
2023-02-05T00:03:13.232Z,17.06
2023-02-05T00:06:04.177Z,17.05
2023-02-05T00:08:54.754Z,17.03
2023-02-05T00:11:45.100Z,17.03
2023-02-05T00:14:35.580Z,17.05
2023-02-05T00:17:26.121Z,17.09
2023-02-05T00:20:17.380Z,17.10
2023-02-05T00:23:08.454Z,17.10
2023-02-05T00:26:00.651Z,17.10
2023-02-05T00:28:51.929Z,17.09
2023-02-05T00:31:43.566Z,17.08
2023-02-05T00:34:34.363Z,17.08
2023-02-05T00:37:24.731Z,17.06
2023-02-05T00:40:17.240Z,17.03
2023-02-05T00:43:08.981Z,17.00
2023-02-05T00:46:00.138Z,16.99
2023-02-05T00:48:51.537Z,16.98
2023-02-05T00:51:42.128Z,16.97
2023-02-05T00:54:33.089Z,16.97
2023-02-05T00:57:24.998Z,16.96
2023-02-05T01:00:18.283Z,16.94
2023-02-05T01:03:08.942Z,16.91
2023-02-05T01:05:59.997Z,16.90
2023-02-05T01:08:50.965Z,16.88
2023-02-05T01:11:41.290Z,16.87
2023-02-05T01:14:31.387Z,16.86
2023-02-05T01:17:22.336Z,16.86
2023-02-05T01:20:16.186Z,16.85
2023-02-05T01:23:06.610Z,16.84
2023-02-05T01:25:57.821Z,16.83
2023-02-05T01:28:49.017Z,16.84
2023-02-05T01:31:39.905Z,16.87
2023-02-05T01:34:30.346Z,16.87
2023-02-05T01:37:21.116Z,16.87
2023-02-05T01:40:15.509Z,16.85
2023-02-05T01:43:06.524Z,16.81
2023-02-05T01:46:29.042Z,16.79
2023-02-05T01:49:25.461Z,16.76
2023-02-05T01:52:19.068Z,16.74
2023-02-05T01:55:12.524Z,16.70
2023-02-05T01:58:04.801Z,16.70
2023-02-05T02:00:56.504Z,16.69
2023-02-05T02:03:48.597Z,16.68
2023-02-05T02:06:40.029Z,16.65
2023-02-05T02:09:33.593Z,16.63
2023-02-05T02:12:29.030Z,16.61
2023-02-05T02:15:22.719Z,16.64
2023-02-05T02:18:31.091Z,16.68
2023-02-05T02:21:47.328Z,16.71
2023-02-05T02:25:02.428Z,16.72
2023-02-05T02:28:00.555Z,16.68
2023-02-05T02:31:00.689Z,16.66
2023-02-05T02:33:58.119Z,16.64
2023-02-05T02:36:56.529Z,16.65
2023-02-05T02:39:56.987Z,16.70
2023-02-05T02:42:52.364Z,16.70
2023-02-05T02:45:49.452Z,16.65
2023-02-05T02:48:43.309Z,16.60
2023-02-05T02:51:36.055Z,16.54
2023-02-05T02:54:28.115Z,16.49
2023-02-05T02:57:20.984Z,16.44
2023-02-05T03:00:19.991Z,16.40
2023-02-05T03:03:13.558Z,16.35
2023-02-05T03:06:07.714Z,16.30
2023-02-05T03:09:01.561Z,16.24
2023-02-05T03:11:52.368Z,16.17
2023-02-05T03:14:44.736Z,16.10
2023-02-05T03:17:35.532Z,16.03
2023-02-05T03:20:29.999Z,15.95
2023-02-05T03:23:21.219Z,15.91
2023-02-05T03:26:26.356Z,15.88
2023-02-05T03:29:28.169Z,15.84
2023-02-05T03:32:32.380Z,15.81
2023-02-05T03:35:33.762Z,15.79
2023-02-05T03:38:38.972Z,15.74
2023-02-05T03:41:58.768Z,15.69
2023-02-05T03:45:15.985Z,15.66
2023-02-05T03:48:23.426Z,15.62
2023-02-05T03:51:26.259Z,15.62
2023-02-05T03:54:24.925Z,15.63
2023-02-05T03:57:24.371Z,15.66
2023-02-05T04:00:17.248Z,15.74
2023-02-05T04:03:09.111Z,15.82
2023-02-05T04:06:00.429Z,15.90
2023-02-05T04:08:51.500Z,15.96
2023-02-05T04:11:42.671Z,16.00
2023-02-05T04:14:33.869Z,16.02
2023-02-05T04:17:24.671Z,16.00
2023-02-05T04:20:16.365Z,15.98
2023-02-05T04:23:08.233Z,15.95
2023-02-05T04:25:59.917Z,15.93
2023-02-05T04:28:59.117Z,15.90
2023-02-05T04:31:51.561Z,15.85
2023-02-05T04:34:43.098Z,15.80
2023-02-05T04:37:35.436Z,15.76
2023-02-05T04:40:25.740Z,15.73
2023-02-05T04:43:16.368Z,15.72
2023-02-05T04:46:10.498Z,15.70
2023-02-05T04:49:01.875Z,15.66
2023-02-05T04:51:52.690Z,15.62
2023-02-05T04:54:43.440Z,15.59
2023-02-05T04:57:35.626Z,15.56
2023-02-05T05:00:27.051Z,15.54
2023-02-05T05:03:17.596Z,15.50
2023-02-05T05:06:09.600Z,15.50
2023-02-05T05:09:01.000Z,15.48
2023-02-05T05:11:51.768Z,15.46
2023-02-05T05:14:42.087Z,15.43
2023-02-05T05:17:32.444Z,15.41
2023-02-05T05:20:23.336Z,15.40
2023-02-05T05:23:14.065Z,15.37
2023-02-05T05:26:07.613Z,15.35
2023-02-05T05:28:59.246Z,15.32
2023-02-05T05:31:49.460Z,15.30
2023-02-05T05:34:40.368Z,15.29
2023-02-05T05:37:31.538Z,15.26
2023-02-05T05:40:40.371Z,15.23
2023-02-05T05:43:49.327Z,15.19
2023-02-05T05:46:40.466Z,15.16
2023-02-05T05:49:31.704Z,15.11
2023-02-05T05:52:22.833Z,15.07
2023-02-05T05:55:13.974Z,15.03
2023-02-05T05:58:06.999Z,14.98
2023-02-05T06:00:57.938Z,14.95
2023-02-05T06:03:50.147Z,14.91
2023-02-05T06:06:42.092Z,14.87
2023-02-05T06:09:32.942Z,14.85
2023-02-05T06:12:23.897Z,14.81
2023-02-05T06:15:15.720Z,14.77
2023-02-05T06:18:06.617Z,14.73
2023-02-05T06:20:57.533Z,14.70
2023-02-05T06:23:48.517Z,14.67
2023-02-05T06:26:38.927Z,14.64
2023-02-05T06:29:31.415Z,14.61
2023-02-05T06:32:23.380Z,14.55
2023-02-05T06:35:15.507Z,14.51
2023-02-05T06:38:06.227Z,14.43
2023-02-05T06:40:57.201Z,14.37
2023-02-05T06:43:47.893Z,14.37
2023-02-05T06:46:38.490Z,14.41
2023-02-05T06:49:29.641Z,14.42
2023-02-05T06:52:20.413Z,14.46
2023-02-05T06:55:11.964Z,14.48
2023-02-05T06:58:02.793Z,14.46
2023-02-05T07:00:52.994Z,14.41
2023-02-05T07:03:43.598Z,14.41
2023-02-05T07:06:34.540Z,14.40
2023-02-05T07:09:25.726Z,14.41
2023-02-05T07:12:16.115Z,14.42
2023-02-05T07:15:07.832Z,14.42
2023-02-05T07:17:58.916Z,14.40
2023-02-05T07:20:49.869Z,14.47
2023-02-05T07:23:40.234Z,14.58
2023-02-05T07:26:31.342Z,14.66
2023-02-05T07:29:22.394Z,14.77
2023-02-05T07:32:13.105Z,14.85
2023-02-05T07:35:04.211Z,14.87
2023-02-05T07:37:55.324Z,14.88
2023-02-05T07:40:45.583Z,14.88
2023-02-05T07:43:36.548Z,14.87
2023-02-05T07:46:28.267Z,14.87
2023-02-05T07:49:18.821Z,14.90
2023-02-05T07:52:10.228Z,14.92
2023-02-05T07:55:01.661Z,14.95
2023-02-05T07:57:52.374Z,14.99
2023-02-05T08:00:43.158Z,15.07
2023-02-05T08:03:34.715Z,15.14
2023-02-05T08:06:25.345Z,15.22
2023-02-05T08:09:16.877Z,15.38
2023-02-05T08:12:10.251Z,15.55
2023-02-05T08:15:01.384Z,15.74
2023-02-05T08:17:53.684Z,15.93
2023-02-05T08:20:44.341Z,16.10
2023-02-05T08:23:35.358Z,16.27
2023-02-05T08:26:26.006Z,16.39
2023-02-05T08:29:16.702Z,16.48
2023-02-05T08:32:07.930Z,16.60
2023-02-05T08:34:58.952Z,16.76
2023-02-05T08:37:49.934Z,16.91
2023-02-05T08:40:40.543Z,17.07
2023-02-05T08:43:31.190Z,17.21
2023-02-05T08:46:29.614Z,17.38
2023-02-05T08:49:21.719Z,17.56
2023-02-05T08:52:12.079Z,17.78
2023-02-05T08:55:02.599Z,18.03
2023-02-05T08:57:53.132Z,18.37
2023-02-05T09:00:43.345Z,19.04
2023-02-05T09:03:33.842Z,20.43
2023-02-05T09:06:24.079Z,22.03
2023-02-05T09:09:16.025Z,23.58
2023-02-05T09:12:07.437Z,24.96
2023-02-05T09:14:58.117Z,26.03
2023-02-05T09:17:48.547Z,26.55
2023-02-05T09:20:44.180Z,26.56
2023-02-05T09:23:34.428Z,26.49
2023-02-05T09:26:26.012Z,26.38
2023-02-05T09:29:16.431Z,26.30
2023-02-05T09:32:06.685Z,26.12
2023-02-05T09:34:56.754Z,25.91
2023-02-05T09:37:47.386Z,25.52
2023-02-05T09:40:41.357Z,24.92
2023-02-05T09:43:47.067Z,24.48
2023-02-05T09:46:46.711Z,24.20
2023-02-05T09:49:44.711Z,23.84
2023-02-05T09:52:38.927Z,23.56
2023-02-05T09:55:31.645Z,23.10
2023-02-05T09:58:26.382Z,22.32
2023-02-05T10:01:23.130Z,21.69
2023-02-05T10:04:15.993Z,21.34
2023-02-05T10:07:24.603Z,21.08
2023-02-05T10:10:29.101Z,20.90
2023-02-05T10:13:37.238Z,20.59
2023-02-05T10:16:58.644Z,20.45
2023-02-05T10:20:07.622Z,20.28
2023-02-05T10:23:13.810Z,20.31
2023-02-05T10:26:13.839Z,20.27
2023-02-05T10:29:15.976Z,20.09
2023-02-05T10:32:21.439Z,19.88
2023-02-05T10:35:25.140Z,19.76
2023-02-05T10:38:23.514Z,19.52
2023-02-05T10:41:23.722Z,19.27
2023-02-05T10:44:22.370Z,19.23
2023-02-05T10:47:18.483Z,19.28
2023-02-05T11:07:38.084Z,20.22
2023-02-05T11:10:29.694Z,20.39
2023-02-05T11:13:22.997Z,20.39
2023-02-05T11:16:13.790Z,20.44
2023-02-05T11:19:04.800Z,20.76
2023-02-05T11:21:57.941Z,21.15
2023-02-05T11:24:48.933Z,21.40
2023-02-05T11:27:39.515Z,21.58
2023-02-05T11:39:41.262Z,21.84
2023-02-05T11:42:58.683Z,21.81
2023-02-05T11:46:11.008Z,21.80
2023-02-05T11:49:06.564Z,21.77
2023-02-05T12:00:01.414Z,21.66
2023-02-05T12:03:07.435Z,21.52
2023-02-05T12:06:04.986Z,21.49
2023-02-05T12:14:07.408Z,21.21
2023-02-05T12:17:18.145Z,21.21
2023-02-05T12:20:21.914Z,21.17
2023-02-05T12:23:36.580Z,21.11
2023-02-05T12:26:38.102Z,20.96
2023-02-05T12:41:17.508Z,20.59
2023-02-05T12:44:19.747Z,20.57
2023-02-05T12:47:29.088Z,20.58
2023-02-05T12:50:43.499Z,20.57
2023-02-05T12:53:48.902Z,20.49
2023-02-05T12:57:00.776Z,20.39
2023-02-05T13:06:49.179Z,20.10
2023-02-05T13:14:16.572Z,19.81
2023-02-05T13:17:14.444Z,19.63
2023-02-05T13:20:08.258Z,19.42
2023-02-05T13:23:18.516Z,19.29
2023-02-05T13:31:10.643Z,18.90
2023-02-05T13:34:06.746Z,18.77
2023-02-05T13:37:21.658Z,18.72
2023-02-05T13:45:24.374Z,18.29
2023-02-05T13:56:30.783Z,17.52
2023-02-05T14:22:42.810Z,17.08
2023-02-05T14:30:07.407Z,17.00
2023-02-05T14:40:01.358Z,17.05
2023-02-05T14:53:50.705Z,17.13
2023-02-05T14:56:47.120Z,17.13
2023-02-05T15:13:36.903Z,16.82
2023-02-05T15:27:38.629Z,16.39
2023-02-05T15:30:37.441Z,16.28
2023-02-05T15:38:08.935Z,16.07
2023-02-05T15:44:20.162Z,15.91
2023-02-05T15:47:32.555Z,15.89
2023-02-05T16:02:39.634Z,15.61
2023-02-05T16:12:34.646Z,15.51
2023-02-05T16:15:29.673Z,15.49
2023-02-05T16:18:33.518Z,15.41
2023-02-05T16:21:33.132Z,15.32
2023-02-05T16:24:39.885Z,15.24
2023-02-05T16:27:43.947Z,15.23
2023-02-05T16:30:44.240Z,15.24
2023-02-05T16:33:41.785Z,15.25
2023-02-05T16:36:40.240Z,15.28
2023-02-05T16:39:35.739Z,15.30
2023-02-05T16:42:38.642Z,15.32
2023-02-05T16:45:31.453Z,15.32
2023-02-05T16:48:34.182Z,15.30
2023-02-05T16:51:55.267Z,15.28
2023-02-05T16:54:45.647Z,15.28
2023-02-05T16:57:41.454Z,15.27
2023-02-05T17:00:34.205Z,15.25
2023-02-05T17:03:26.354Z,15.25
2023-02-05T17:06:21.234Z,15.25
2023-02-05T17:09:30.674Z,15.26
2023-02-05T17:12:41.003Z,15.26
2023-02-05T17:15:40.664Z,15.27
2023-02-05T17:18:34.361Z,15.26
2023-02-05T17:21:27.887Z,15.24
2023-02-05T17:24:19.205Z,15.22
2023-02-05T17:27:15.370Z,15.18
2023-02-05T17:30:12.158Z,15.16
2023-02-05T17:33:02.121Z,15.16
2023-02-05T17:35:53.078Z,15.17
2023-02-05T17:38:44.429Z,15.18
2023-02-05T17:41:56.578Z,15.17
2023-02-05T17:44:48.148Z,15.18
2023-02-05T17:47:39.397Z,15.18
2023-02-05T17:50:30.404Z,15.17
2023-02-05T17:53:21.542Z,15.16
2023-02-05T17:56:14.033Z,15.15
2023-02-05T17:59:05.359Z,15.14
2023-02-05T18:01:58.735Z,15.13
2023-02-05T18:04:49.693Z,15.12
2023-02-05T18:07:43.116Z,15.09
2023-02-05T18:10:35.569Z,15.04
2023-02-05T18:13:27.448Z,14.97
2023-02-05T18:16:18.657Z,14.89
2023-02-05T18:19:09.677Z,14.82
2023-02-05T18:22:00.633Z,14.77
2023-02-05T18:24:51.517Z,14.73
2023-02-05T18:27:42.299Z,14.70
2023-02-05T18:30:33.010Z,14.67
2023-02-05T18:33:23.983Z,14.63
2023-02-05T18:36:16.776Z,14.60
2023-02-05T18:39:08.686Z,14.55
2023-02-05T18:42:00.289Z,14.52
2023-02-05T18:44:51.106Z,14.50
2023-02-05T18:47:42.566Z,14.50
2023-02-05T18:50:33.680Z,14.48
2023-02-05T18:53:28.128Z,14.47
2023-02-05T18:56:20.725Z,14.45
2023-02-05T18:59:15.626Z,14.43
2023-02-05T19:02:06.215Z,14.40
2023-02-05T19:04:57.558Z,14.34
2023-02-05T19:07:49.040Z,14.30
2023-02-05T19:10:41.314Z,14.27
2023-02-05T19:13:31.970Z,14.27
2023-02-05T19:16:22.434Z,14.28
2023-02-05T19:19:16.536Z,14.28
2023-02-05T19:22:07.561Z,14.26
2023-02-05T19:24:58.692Z,14.26
2023-02-05T19:27:49.868Z,14.26
2023-02-05T19:30:40.936Z,14.24
2023-02-05T19:33:33.413Z,14.23
2023-02-05T19:36:25.173Z,14.19
2023-02-05T19:39:17.778Z,14.16
2023-02-05T19:42:08.492Z,14.12
2023-02-05T19:44:59.570Z,14.07
2023-02-05T19:47:50.186Z,14.00
2023-02-05T19:50:42.116Z,13.97
2023-02-05T19:53:35.673Z,13.95
2023-02-05T19:56:27.535Z,13.91
2023-02-05T19:59:18.132Z,13.87
2023-02-05T20:02:11.378Z,13.84
2023-02-05T20:05:02.837Z,13.81
2023-02-05T20:07:54.243Z,13.78
2023-02-05T20:10:45.026Z,13.77
2023-02-05T20:13:38.159Z,13.78
2023-02-05T20:16:30.195Z,13.78
2023-02-05T20:19:21.856Z,13.79
2023-02-05T20:22:13.212Z,13.81
2023-02-05T20:25:04.460Z,13.84
2023-02-05T20:27:55.117Z,13.85
2023-02-05T20:31:04.224Z,13.84
2023-02-05T20:33:55.155Z,13.85
2023-02-05T20:36:47.200Z,13.85
2023-02-05T20:39:42.104Z,13.85
2023-02-05T20:42:33.113Z,13.87
2023-02-05T20:45:23.953Z,13.93
2023-02-05T20:48:14.917Z,13.96
2023-02-05T20:51:11.393Z,13.96
2023-02-05T20:54:02.263Z,13.98
2023-02-05T20:56:57.354Z,13.99
2023-02-05T20:59:48.972Z,13.98
2023-02-05T21:02:39.391Z,13.98
2023-02-05T21:05:29.998Z,13.96
2023-02-05T21:08:20.579Z,13.95
2023-02-05T21:11:11.644Z,13.93
2023-02-05T21:14:04.248Z,13.90
2023-02-05T21:16:55.081Z,13.91
2023-02-05T21:19:45.788Z,13.93
2023-02-05T21:22:36.083Z,13.95
2023-02-05T21:25:26.159Z,13.97
2023-02-05T21:28:18.970Z,14.00
2023-02-05T21:31:10.799Z,14.01
2023-02-05T21:34:00.645Z,14.02
2023-02-05T21:36:52.884Z,14.03
2023-02-05T21:39:43.980Z,14.04
2023-02-05T21:42:34.916Z,14.07
2023-02-05T21:45:25.926Z,14.09
2023-02-05T21:48:17.540Z,14.10
2023-02-05T21:51:13.495Z,14.10
2023-02-05T21:54:06.343Z,14.09
2023-02-05T21:56:58.137Z,14.08
2023-02-05T21:59:50.417Z,14.09
2023-02-05T22:02:42.249Z,14.07
2023-02-05T22:05:36.037Z,14.06
2023-02-05T22:08:26.954Z,14.05
2023-02-05T22:11:19.592Z,14.03
2023-02-05T22:14:11.573Z,14.03
2023-02-05T22:17:02.463Z,14.01
2023-02-05T22:19:54.022Z,13.98
2023-02-05T22:22:44.344Z,13.95
2023-02-05T22:25:35.518Z,13.96
2023-02-05T22:28:26.221Z,13.95
2023-02-05T22:31:18.383Z,13.93
2023-02-05T22:34:08.724Z,13.93
2023-02-05T22:36:59.916Z,13.92
2023-02-05T22:39:50.668Z,13.90
2023-02-05T22:42:41.341Z,13.88
2023-02-05T22:45:33.566Z,13.86
2023-02-05T22:48:24.741Z,13.83
2023-02-05T22:51:17.847Z,13.84
2023-02-05T22:54:09.674Z,13.84
2023-02-05T22:57:00.576Z,13.85
2023-02-05T22:59:51.022Z,13.85
2023-02-05T23:02:42.756Z,13.83
2023-02-05T23:05:36.513Z,13.81
2023-02-05T23:08:27.493Z,13.79
2023-02-05T23:11:18.409Z,13.77
2023-02-05T23:14:09.622Z,13.85
2023-02-05T23:17:00.269Z,14.00
2023-02-05T23:19:54.192Z,14.14
2023-02-05T23:22:44.318Z,14.28
2023-02-05T23:25:37.704Z,14.34
2023-02-05T23:28:28.338Z,14.28
2023-02-05T23:31:19.164Z,14.27
2023-02-05T23:34:10.004Z,14.30
2023-02-05T23:37:01.043Z,14.41
2023-02-05T23:39:51.201Z,14.50
2023-02-05T23:42:41.436Z,14.52
2023-02-05T23:45:32.080Z,14.51
2023-02-05T23:48:23.281Z,14.53
2023-02-05T23:51:14.069Z,14.52
2023-02-05T23:54:05.424Z,14.46
2023-02-05T23:56:56.794Z,14.39
2023-02-05T23:59:47.652Z,14.35
